sensor_id;sensor_type;location;lat;lon;timestamp;temperature;humidity
13375;DHT22;6756;51.354;15.754;2023-02-28T00:02:15;-1.10;99.90
13375;DHT22;6756;51.354;15.754;2023-02-28T00:06:18;-1.10;99.90
13375;DHT22;6756;51.354;15.754;2023-02-28T00:10:21;-1.10;99.90
13375;DHT22;6756;51.354;15.754;2023-02-28T00:14:23;-1.10;99.90
13375;DHT22;6756;51.354;15.754;2023-02-28T00:18:24;-1.10;99.90
13375;DHT22;6756;51.354;15.754;2023-02-28T00:22:24;-1.10;99.90
13375;DHT22;6756;51.354;15.754;2023-02-28T00:26:25;-1.10;99.90
13375;DHT22;6756;51.354;15.754;2023-02-28T00:30:26;-1.10;99.90
13375;DHT22;6756;51.354;15.754;2023-02-28T00:34:27;-1.10;99.90
13375;DHT22;6756;51.354;15.754;2023-02-28T00:38:28;-1.10;99.90
13375;DHT22;6756;51.354;15.754;2023-02-28T00:42:28;-1.10;99.90
13375;DHT22;6756;51.354;15.754;2023-02-28T00:46:29;-1.10;99.90
13375;DHT22;6756;51.354;15.754;2023-02-28T00:50:30;-1.10;99.90
13375;DHT22;6756;51.354;15.754;2023-02-28T00:54:31;-1.10;99.90
13375;DHT22;6756;51.354;15.754;2023-02-28T00:58:32;-1.10;99.90
13375;DHT22;6756;51.354;15.754;2023-02-28T01:02:33;-1.10;99.90
13375;DHT22;6756;51.354;15.754;2023-02-28T01:06:34;-1.20;99.90
13375;DHT22;6756;51.354;15.754;2023-02-28T01:10:34;-1.20;99.90
13375;DHT22;6756;51.354;15.754;2023-02-28T01:14:37;-1.20;99.90
13375;DHT22;6756;51.354;15.754;2023-02-28T01:18:38;-1.20;99.90
13375;DHT22;6756;51.354;15.754;2023-02-28T01:22:39;-1.20;99.90
13375;DHT22;6756;51.354;15.754;2023-02-28T01:26:40;-1.20;99.90
13375;DHT22;6756;51.354;15.754;2023-02-28T01:30:41;-1.20;99.90
13375;DHT22;6756;51.354;15.754;2023-02-28T01:34:42;-1.20;99.90
13375;DHT22;6756;51.354;15.754;2023-02-28T01:38:43;-1.20;99.90
13375;DHT22;6756;51.354;15.754;2023-02-28T01:42:44;-1.20;1.00
13375;DHT22;6756;51.354;15.754;2023-02-28T01:46:45;-1.20;99.90
13375;DHT22;6756;51.354;15.754;2023-02-28T01:50:47;-1.20;99.90
13375;DHT22;6756;51.354;15.754;2023-02-28T01:55:01;-1.20;99.90
13375;DHT22;6756;51.354;15.754;2023-02-28T01:59:03;-1.20;99.90
13375;DHT22;6756;51.354;15.754;2023-02-28T02:03:11;-1.20;99.90
13375;DHT22;6756;51.354;15.754;2023-02-28T02:07:13;-1.20;99.90
13375;DHT22;6756;51.354;15.754;2023-02-28T02:11:18;-1.20;99.90
13375;DHT22;6756;51.354;15.754;2023-02-28T02:15:34;-1.20;99.90
13375;DHT22;6756;51.354;15.754;2023-02-28T02:37:13;-1.20;1.00
13375;DHT22;6756;51.354;15.754;2023-02-28T02:41:37;-1.20;1.00
13375;DHT22;6756;51.354;15.754;2023-02-28T02:45:44;-1.20;1.00
13375;DHT22;6756;51.354;15.754;2023-02-28T02:49:50;-1.30;1.00
13375;DHT22;6756;51.354;15.754;2023-02-28T02:54:16;-1.30;1.00
13375;DHT22;6756;51.354;15.754;2023-02-28T02:58:19;-1.30;1.00
13375;DHT22;6756;51.354;15.754;2023-02-28T03:02:21;-1.30;1.00
13375;DHT22;6756;51.354;15.754;2023-02-28T03:06:22;-1.30;1.00
13375;DHT22;6756;51.354;15.754;2023-02-28T03:10:50;-1.30;1.00
13375;DHT22;6756;51.354;15.754;2023-02-28T03:23:26;-1.30;1.00
13375;DHT22;6756;51.354;15.754;2023-02-28T03:32:05;-1.30;1.00
13375;DHT22;6756;51.354;15.754;2023-02-28T03:36:15;-1.30;1.00
13375;DHT22;6756;51.354;15.754;2023-02-28T03:40:21;-1.30;1.00
13375;DHT22;6756;51.354;15.754;2023-02-28T03:44:30;-1.30;1.00
13375;DHT22;6756;51.354;15.754;2023-02-28T03:48:48;-1.30;1.00
13375;DHT22;6756;51.354;15.754;2023-02-28T04:01:42;-1.30;1.00
13375;DHT22;6756;51.354;15.754;2023-02-28T04:05:55;-1.30;1.00
13375;DHT22;6756;51.354;15.754;2023-02-28T04:09:57;-1.30;1.00
13375;DHT22;6756;51.354;15.754;2023-02-28T04:13:58;-1.40;1.00
13375;DHT22;6756;51.354;15.754;2023-02-28T04:17:59;-1.30;1.00
13375;DHT22;6756;51.354;15.754;2023-02-28T04:21:59;-1.30;1.00
13375;DHT22;6756;51.354;15.754;2023-02-28T04:26:00;-1.30;1.00
13375;DHT22;6756;51.354;15.754;2023-02-28T04:30:01;-1.30;1.00
13375;DHT22;6756;51.354;15.754;2023-02-28T04:34:02;-1.30;1.00
13375;DHT22;6756;51.354;15.754;2023-02-28T04:38:03;-1.30;1.00
13375;DHT22;6756;51.354;15.754;2023-02-28T04:42:04;-1.30;1.00
13375;DHT22;6756;51.354;15.754;2023-02-28T04:46:05;-1.30;1.00
13375;DHT22;6756;51.354;15.754;2023-02-28T04:50:06;-1.30;1.00
13375;DHT22;6756;51.354;15.754;2023-02-28T04:54:08;-1.30;1.00
13375;DHT22;6756;51.354;15.754;2023-02-28T04:58:08;-1.30;1.00
13375;DHT22;6756;51.354;15.754;2023-02-28T05:02:09;-1.30;1.00
13375;DHT22;6756;51.354;15.754;2023-02-28T05:06:11;-1.30;1.00
13375;DHT22;6756;51.354;15.754;2023-02-28T05:10:12;-1.30;1.00
13375;DHT22;6756;51.354;15.754;2023-02-28T05:14:13;-1.30;1.00
13375;DHT22;6756;51.354;15.754;2023-02-28T05:18:14;-1.30;10.50
13375;DHT22;6756;51.354;15.754;2023-02-28T05:22:15;-1.30;14.80
13375;DHT22;6756;51.354;15.754;2023-02-28T05:26:17;-1.30;23.90
13375;DHT22;6756;51.354;15.754;2023-02-28T05:30:18;-1.40;25.80
13375;DHT22;6756;51.354;15.754;2023-02-28T05:34:18;-1.40;31.00
13375;DHT22;6756;51.354;15.754;2023-02-28T05:38:19;-1.40;66.70
13375;DHT22;6756;51.354;15.754;2023-02-28T05:42:20;-1.50;99.90
13375;DHT22;6756;51.354;15.754;2023-02-28T05:46:21;-1.50;99.90
13375;DHT22;6756;51.354;15.754;2023-02-28T05:50:22;-1.50;99.90
13375;DHT22;6756;51.354;15.754;2023-02-28T05:54:22;-1.50;99.90
13375;DHT22;6756;51.354;15.754;2023-02-28T05:58:23;-1.50;99.90
13375;DHT22;6756;51.354;15.754;2023-02-28T06:02:26;-1.50;99.90
13375;DHT22;6756;51.354;15.754;2023-02-28T06:06:27;-1.50;99.90
13375;DHT22;6756;51.354;15.754;2023-02-28T06:10:33;-1.50;99.90
13375;DHT22;6756;51.354;15.754;2023-02-28T06:14:34;-1.40;99.90
13375;DHT22;6756;51.354;15.754;2023-02-28T06:18:35;-1.40;99.90
13375;DHT22;6756;51.354;15.754;2023-02-28T06:22:36;-1.40;99.90
13375;DHT22;6756;51.354;15.754;2023-02-28T06:26:37;-1.30;99.90
13375;DHT22;6756;51.354;15.754;2023-02-28T06:30:39;-1.30;99.90
13375;DHT22;6756;51.354;15.754;2023-02-28T06:34:39;-1.30;99.90
13375;DHT22;6756;51.354;15.754;2023-02-28T06:38:41;-1.20;99.90
13375;DHT22;6756;51.354;15.754;2023-02-28T06:42:43;-1.20;99.90
13375;DHT22;6756;51.354;15.754;2023-02-28T06:46:44;-1.10;99.90
13375;DHT22;6756;51.354;15.754;2023-02-28T06:50:45;-1.00;99.90
13375;DHT22;6756;51.354;15.754;2023-02-28T06:54:47;-0.90;99.90
13375;DHT22;6756;51.354;15.754;2023-02-28T06:59:00;-0.80;99.90
13375;DHT22;6756;51.354;15.754;2023-02-28T07:03:00;-0.70;1.60
13375;DHT22;6756;51.354;15.754;2023-02-28T07:07:01;-0.60;1.00
13375;DHT22;6756;51.354;15.754;2023-02-28T07:11:03;-0.50;1.00
13375;DHT22;6756;51.354;15.754;2023-02-28T07:15:05;-0.30;99.90
13375;DHT22;6756;51.354;15.754;2023-02-28T07:19:06;-0.10;99.90
13375;DHT22;6756;51.354;15.754;2023-02-28T07:23:10;0.10;99.90
13375;DHT22;6756;51.354;15.754;2023-02-28T07:27:11;0.30;16.50
13375;DHT22;6756;51.354;15.754;2023-02-28T07:31:12;0.50;99.90
13375;DHT22;6756;51.354;15.754;2023-02-28T07:35:16;0.70;1.00
13375;DHT22;6756;51.354;15.754;2023-02-28T07:39:17;0.90;99.90
13375;DHT22;6756;51.354;15.754;2023-02-28T07:43:18;1.00;99.90
13375;DHT22;6756;51.354;15.754;2023-02-28T07:47:19;1.20;99.90
13375;DHT22;6756;51.354;15.754;2023-02-28T07:51:21;1.30;99.90
13375;DHT22;6756;51.354;15.754;2023-02-28T07:55:22;1.30;99.90
13375;DHT22;6756;51.354;15.754;2023-02-28T07:59:23;1.30;99.90
13375;DHT22;6756;51.354;15.754;2023-02-28T08:03:24;1.10;99.90
13375;DHT22;6756;51.354;15.754;2023-02-28T08:07:25;1.00;99.90
13375;DHT22;6756;51.354;15.754;2023-02-28T08:11:26;1.00;99.90
13375;DHT22;6756;51.354;15.754;2023-02-28T08:15:30;1.10;99.90
13375;DHT22;6756;51.354;15.754;2023-02-28T08:19:31;1.30;99.90
13375;DHT22;6756;51.354;15.754;2023-02-28T08:23:32;1.40;99.90
13375;DHT22;6756;51.354;15.754;2023-02-28T08:27:34;1.70;99.90
13375;DHT22;6756;51.354;15.754;2023-02-28T08:31:35;1.90;85.70
13375;DHT22;6756;51.354;15.754;2023-02-28T08:35:36;2.00;66.90
13375;DHT22;6756;51.354;15.754;2023-02-28T08:39:38;2.20;43.90
13375;DHT22;6756;51.354;15.754;2023-02-28T08:43:39;2.50;31.10
13375;DHT22;6756;51.354;15.754;2023-02-28T08:47:40;2.70;22.40
13375;DHT22;6756;51.354;15.754;2023-02-28T08:51:41;2.90;4.10
13375;DHT22;6756;51.354;15.754;2023-02-28T08:55:42;3.00;1.00
13375;DHT22;6756;51.354;15.754;2023-02-28T08:59:43;3.10;1.00
13375;DHT22;6756;51.354;15.754;2023-02-28T09:03:45;3.30;1.00
13375;DHT22;6756;51.354;15.754;2023-02-28T09:07:46;3.50;1.00
13375;DHT22;6756;51.354;15.754;2023-02-28T09:11:47;3.50;1.00
13375;DHT22;6756;51.354;15.754;2023-02-28T09:15:48;3.40;1.00
13375;DHT22;6756;51.354;15.754;2023-02-28T09:19:49;3.50;1.00
13375;DHT22;6756;51.354;15.754;2023-02-28T09:23:50;3.50;1.00
13375;DHT22;6756;51.354;15.754;2023-02-28T09:27:51;3.40;1.00
13375;DHT22;6756;51.354;15.754;2023-02-28T09:31:52;3.30;1.00
13375;DHT22;6756;51.354;15.754;2023-02-28T09:35:59;3.10;1.00
13375;DHT22;6756;51.354;15.754;2023-02-28T09:40:00;2.90;1.00
13375;DHT22;6756;51.354;15.754;2023-02-28T09:44:02;2.70;1.00
13375;DHT22;6756;51.354;15.754;2023-02-28T09:48:10;2.60;1.00
13375;DHT22;6756;51.354;15.754;2023-02-28T09:52:19;2.50;1.00
13375;DHT22;6756;51.354;15.754;2023-02-28T09:56:36;2.60;1.00
13375;DHT22;6756;51.354;15.754;2023-02-28T10:00:39;2.80;1.00
13375;DHT22;6756;51.354;15.754;2023-02-28T10:05:00;3.00;1.00
13375;DHT22;6756;51.354;15.754;2023-02-28T10:09:06;3.10;1.00
13375;DHT22;6756;51.354;15.754;2023-02-28T10:17:40;3.60;1.00
13375;DHT22;6756;51.354;15.754;2023-02-28T10:21:55;3.80;1.00
13375;DHT22;6756;51.354;15.754;2023-02-28T10:26:00;4.00;1.00
13375;DHT22;6756;51.354;15.754;2023-02-28T10:30:02;4.30;1.00
13375;DHT22;6756;51.354;15.754;2023-02-28T10:34:03;4.30;1.00
13375;DHT22;6756;51.354;15.754;2023-02-28T10:38:15;4.30;1.00
13375;DHT22;6756;51.354;15.754;2023-02-28T10:42:28;4.10;1.00
13375;DHT22;6756;51.354;15.754;2023-02-28T10:46:30;4.20;1.00
13375;DHT22;6756;51.354;15.754;2023-02-28T10:54:45;4.30;1.00
13375;DHT22;6756;51.354;15.754;2023-02-28T10:59:26;4.50;1.00
13375;DHT22;6756;51.354;15.754;2023-02-28T11:03:33;4.40;1.00
13375;DHT22;6756;51.354;15.754;2023-02-28T11:07:34;4.20;1.00
13375;DHT22;6756;51.354;15.754;2023-02-28T11:11:44;4.10;1.00
13375;DHT22;6756;51.354;15.754;2023-02-28T11:15:57;4.20;1.00
13375;DHT22;6756;51.354;15.754;2023-02-28T11:20:05;4.40;1.00
13375;DHT22;6756;51.354;15.754;2023-02-28T11:24:29;4.50;1.00
13375;DHT22;6756;51.354;15.754;2023-02-28T11:28:35;4.70;1.00
13375;DHT22;6756;51.354;15.754;2023-02-28T11:32:37;4.80;1.00
13375;DHT22;6756;51.354;15.754;2023-02-28T11:36:56;5.00;1.00
13375;DHT22;6756;51.354;15.754;2023-02-28T11:49:32;5.20;1.00
13375;DHT22;6756;51.354;15.754;2023-02-28T12:11:56;4.90;1.00
13375;DHT22;6756;51.354;15.754;2023-02-28T12:20:45;5.30;1.00
13375;DHT22;6756;51.354;15.754;2023-02-28T12:33:16;5.80;1.00
13375;DHT22;6756;51.354;15.754;2023-02-28T12:37:27;5.80;1.00
13375;DHT22;6756;51.354;15.754;2023-02-28T12:41:47;6.10;1.00
13375;DHT22;6756;51.354;15.754;2023-02-28T12:45:53;6.30;1.00
13375;DHT22;6756;51.354;15.754;2023-02-28T12:50:02;6.30;1.00
13375;DHT22;6756;51.354;15.754;2023-02-28T12:58:39;6.30;1.00
13375;DHT22;6756;51.354;15.754;2023-02-28T13:11:33;5.50;1.00
13375;DHT22;6756;51.354;15.754;2023-02-28T13:15:34;5.40;1.00
13375;DHT22;6756;51.354;15.754;2023-02-28T13:19:44;5.30;1.00
13375;DHT22;6756;51.354;15.754;2023-02-28T13:27:54;5.60;1.00
13375;DHT22;6756;51.354;15.754;2023-02-28T13:40:32;5.60;1.00
13375;DHT22;6756;51.354;15.754;2023-02-28T13:49:26;5.30;1.00
13375;DHT22;6756;51.354;15.754;2023-02-28T13:54:03;5.20;1.00
13375;DHT22;6756;51.354;15.754;2023-02-28T14:06:59;5.00;1.00
13375;DHT22;6756;51.354;15.754;2023-02-28T14:11:06;4.80;1.00
13375;DHT22;6756;51.354;15.754;2023-02-28T14:19:35;4.80;1.00
13375;DHT22;6756;51.354;15.754;2023-02-28T14:27:49;4.80;1.00
13375;DHT22;6756;51.354;15.754;2023-02-28T14:32:11;4.80;1.00
13375;DHT22;6756;51.354;15.754;2023-02-28T14:36:33;4.80;1.00
13375;DHT22;6756;51.354;15.754;2023-02-28T14:40:35;4.80;1.00
13375;DHT22;6756;51.354;15.754;2023-02-28T14:44:38;4.70;1.00
13375;DHT22;6756;51.354;15.754;2023-02-28T14:48:39;4.90;1.00
13375;DHT22;6756;51.354;15.754;2023-02-28T14:52:43;4.80;1.00
13375;DHT22;6756;51.354;15.754;2023-02-28T14:56:44;4.70;1.00
13375;DHT22;6756;51.354;15.754;2023-02-28T15:00:50;4.70;1.00
13375;DHT22;6756;51.354;15.754;2023-02-28T15:05:00;4.60;1.00
13375;DHT22;6756;51.354;15.754;2023-02-28T15:09:17;4.50;1.00
13375;DHT22;6756;51.354;15.754;2023-02-28T15:13:19;4.30;1.00
13375;DHT22;6756;51.354;15.754;2023-02-28T15:17:23;4.20;1.00
13375;DHT22;6756;51.354;15.754;2023-02-28T15:21:32;4.10;1.00
13375;DHT22;6756;51.354;15.754;2023-02-28T15:25:34;4.00;1.00
13375;DHT22;6756;51.354;15.754;2023-02-28T15:29:47;3.90;1.00
13375;DHT22;6756;51.354;15.754;2023-02-28T15:34:02;3.80;1.00
13375;DHT22;6756;51.354;15.754;2023-02-28T15:42:21;3.70;1.00
13375;DHT22;6756;51.354;15.754;2023-02-28T15:46:22;3.70;1.00
13375;DHT22;6756;51.354;15.754;2023-02-28T15:50:23;3.70;1.00
13375;DHT22;6756;51.354;15.754;2023-02-28T15:54:30;3.60;1.00
13375;DHT22;6756;51.354;15.754;2023-02-28T15:58:34;3.50;1.00
13375;DHT22;6756;51.354;15.754;2023-02-28T16:02:37;3.40;1.00
13375;DHT22;6756;51.354;15.754;2023-02-28T16:06:42;3.20;1.00
13375;DHT22;6756;51.354;15.754;2023-02-28T16:10:44;3.10;1.00
13375;DHT22;6756;51.354;15.754;2023-02-28T16:14:53;2.90;1.00
13375;DHT22;6756;51.354;15.754;2023-02-28T16:18:54;2.70;1.00
13375;DHT22;6756;51.354;15.754;2023-02-28T16:22:55;2.50;1.00
13375;DHT22;6756;51.354;15.754;2023-02-28T16:26:57;2.30;1.00
13375;DHT22;6756;51.354;15.754;2023-02-28T16:31:00;2.00;1.00
13375;DHT22;6756;51.354;15.754;2023-02-28T16:35:08;1.80;4.50
13375;DHT22;6756;51.354;15.754;2023-02-28T16:39:10;1.60;8.00
13375;DHT22;6756;51.354;15.754;2023-02-28T16:43:17;1.40;11.90
13375;DHT22;6756;51.354;15.754;2023-02-28T16:47:19;1.30;18.10
13375;DHT22;6756;51.354;15.754;2023-02-28T16:51:20;1.10;22.80
13375;DHT22;6756;51.354;15.754;2023-02-28T16:55:26;0.80;28.90
13375;DHT22;6756;51.354;15.754;2023-02-28T16:59:27;0.50;40.80
13375;DHT22;6756;51.354;15.754;2023-02-28T17:03:29;0.20;60.30
13375;DHT22;6756;51.354;15.754;2023-02-28T17:07:30;-0.10;87.90
13375;DHT22;6756;51.354;15.754;2023-02-28T17:11:31;-0.30;99.90
13375;DHT22;6756;51.354;15.754;2023-02-28T17:15:33;-0.60;99.90
13375;DHT22;6756;51.354;15.754;2023-02-28T17:19:34;-0.80;99.90
13375;DHT22;6756;51.354;15.754;2023-02-28T17:23:36;-1.00;99.90
13375;DHT22;6756;51.354;15.754;2023-02-28T17:27:37;-1.20;99.90
13375;DHT22;6756;51.354;15.754;2023-02-28T17:31:38;-1.30;99.90
13375;DHT22;6756;51.354;15.754;2023-02-28T17:35:39;-1.50;99.90
13375;DHT22;6756;51.354;15.754;2023-02-28T17:39:41;-1.60;99.90
13375;DHT22;6756;51.354;15.754;2023-02-28T17:43:42;-1.70;99.90
13375;DHT22;6756;51.354;15.754;2023-02-28T17:47:45;-1.80;99.90
13375;DHT22;6756;51.354;15.754;2023-02-28T17:51:47;-1.90;99.90
13375;DHT22;6756;51.354;15.754;2023-02-28T17:55:51;-2.00;99.90
13375;DHT22;6756;51.354;15.754;2023-02-28T17:59:52;-2.10;99.90
13375;DHT22;6756;51.354;15.754;2023-02-28T18:03:54;-2.20;99.90
13375;DHT22;6756;51.354;15.754;2023-02-28T18:07:55;-2.30;99.90
13375;DHT22;6756;51.354;15.754;2023-02-28T18:11:56;-2.40;99.90
13375;DHT22;6756;51.354;15.754;2023-02-28T18:15:57;-2.50;1.00
13375;DHT22;6756;51.354;15.754;2023-02-28T18:19:58;-2.60;1.00
13375;DHT22;6756;51.354;15.754;2023-02-28T18:23:59;-2.60;1.00
13375;DHT22;6756;51.354;15.754;2023-02-28T18:28:00;-2.70;1.00
13375;DHT22;6756;51.354;15.754;2023-02-28T18:32:01;-2.80;1.00
13375;DHT22;6756;51.354;15.754;2023-02-28T18:36:03;-3.00;1.00
13375;DHT22;6756;51.354;15.754;2023-02-28T18:40:05;-3.10;1.00
13375;DHT22;6756;51.354;15.754;2023-02-28T18:44:06;-3.10;1.00
13375;DHT22;6756;51.354;15.754;2023-02-28T18:48:07;-3.20;1.00
13375;DHT22;6756;51.354;15.754;2023-02-28T18:52:08;-3.20;7.40
13375;DHT22;6756;51.354;15.754;2023-02-28T18:56:12;-3.30;39.40
13375;DHT22;6756;51.354;15.754;2023-02-28T19:00:15;-3.30;95.10
13375;DHT22;6756;51.354;15.754;2023-02-28T19:04:19;-3.40;99.90
13375;DHT22;6756;51.354;15.754;2023-02-28T19:08:20;-3.40;99.90
13375;DHT22;6756;51.354;15.754;2023-02-28T19:12:20;-3.40;99.90
13375;DHT22;6756;51.354;15.754;2023-02-28T19:16:22;-3.40;99.90
13375;DHT22;6756;51.354;15.754;2023-02-28T19:20:23;-3.50;99.90
13375;DHT22;6756;51.354;15.754;2023-02-28T19:24:24;-3.50;99.90
13375;DHT22;6756;51.354;15.754;2023-02-28T19:28:28;-3.50;99.90
13375;DHT22;6756;51.354;15.754;2023-02-28T19:32:32;-3.50;99.90
13375;DHT22;6756;51.354;15.754;2023-02-28T19:36:33;-3.50;99.90
13375;DHT22;6756;51.354;15.754;2023-02-28T19:40:35;-3.50;99.90
13375;DHT22;6756;51.354;15.754;2023-02-28T19:44:36;-3.50;99.90
13375;DHT22;6756;51.354;15.754;2023-02-28T19:48:36;-3.50;99.90
13375;DHT22;6756;51.354;15.754;2023-02-28T19:52:37;-3.60;1.00
13375;DHT22;6756;51.354;15.754;2023-02-28T19:56:38;-3.60;1.00
13375;DHT22;6756;51.354;15.754;2023-02-28T20:00:40;-3.60;1.00
13375;DHT22;6756;51.354;15.754;2023-02-28T20:04:41;-3.60;1.00
13375;DHT22;6756;51.354;15.754;2023-02-28T20:08:42;-3.70;1.00
13375;DHT22;6756;51.354;15.754;2023-02-28T20:12:43;-3.80;1.00
13375;DHT22;6756;51.354;15.754;2023-02-28T20:16:44;-3.80;1.00
13375;DHT22;6756;51.354;15.754;2023-02-28T20:20:45;-3.90;1.00
13375;DHT22;6756;51.354;15.754;2023-02-28T20:24:46;-4.00;1.00
13375;DHT22;6756;51.354;15.754;2023-02-28T20:28:47;-4.10;1.00
13375;DHT22;6756;51.354;15.754;2023-02-28T20:32:49;-4.20;1.00
13375;DHT22;6756;51.354;15.754;2023-02-28T20:36:49;-4.30;1.00
13375;DHT22;6756;51.354;15.754;2023-02-28T20:40:54;-4.40;1.00
13375;DHT22;6756;51.354;15.754;2023-02-28T20:44:55;-4.50;12.80
13375;DHT22;6756;51.354;15.754;2023-02-28T20:48:57;-4.50;39.40
13375;DHT22;6756;51.354;15.754;2023-02-28T20:52:57;-4.60;99.90
13375;DHT22;6756;51.354;15.754;2023-02-28T20:56:58;-4.70;99.90
13375;DHT22;6756;51.354;15.754;2023-02-28T21:01:06;-4.70;99.90
13375;DHT22;6756;51.354;15.754;2023-02-28T21:05:16;-4.70;99.90
13375;DHT22;6756;51.354;15.754;2023-02-28T21:09:17;-4.80;99.90
13375;DHT22;6756;51.354;15.754;2023-02-28T21:13:18;-4.90;99.90
13375;DHT22;6756;51.354;15.754;2023-02-28T21:17:19;-4.90;1.00
13375;DHT22;6756;51.354;15.754;2023-02-28T21:21:23;-5.00;1.00
13375;DHT22;6756;51.354;15.754;2023-02-28T21:25:24;-5.00;1.00
13375;DHT22;6756;51.354;15.754;2023-02-28T21:29:25;-5.10;1.00
13375;DHT22;6756;51.354;15.754;2023-02-28T21:33:26;-5.10;99.90
13375;DHT22;6756;51.354;15.754;2023-02-28T21:37:27;-5.10;99.90
13375;DHT22;6756;51.354;15.754;2023-02-28T21:41:27;-5.20;99.90
13375;DHT22;6756;51.354;15.754;2023-02-28T21:45:28;-5.20;99.90
13375;DHT22;6756;51.354;15.754;2023-02-28T21:49:29;-5.30;99.90
13375;DHT22;6756;51.354;15.754;2023-02-28T21:53:32;-5.40;1.00
13375;DHT22;6756;51.354;15.754;2023-02-28T21:57:32;-5.40;48.70
13375;DHT22;6756;51.354;15.754;2023-02-28T22:01:36;-5.40;99.90
13375;DHT22;6756;51.354;15.754;2023-02-28T22:05:37;-5.30;99.90
13375;DHT22;6756;51.354;15.754;2023-02-28T22:09:38;-5.30;1.00
13375;DHT22;6756;51.354;15.754;2023-02-28T22:13:39;-5.30;1.00
13375;DHT22;6756;51.354;15.754;2023-02-28T22:17:41;-5.30;1.00
13375;DHT22;6756;51.354;15.754;2023-02-28T22:21:42;-5.40;99.90
13375;DHT22;6756;51.354;15.754;2023-02-28T22:25:44;-5.60;1.00
13375;DHT22;6756;51.354;15.754;2023-02-28T22:29:45;-5.80;1.00
13375;DHT22;6756;51.354;15.754;2023-02-28T22:33:47;-5.90;1.00
13375;DHT22;6756;51.354;15.754;2023-02-28T22:37:48;-5.90;1.00
13375;DHT22;6756;51.354;15.754;2023-02-28T22:41:49;-6.00;99.90
13375;DHT22;6756;51.354;15.754;2023-02-28T22:45:49;-6.00;99.90
13375;DHT22;6756;51.354;15.754;2023-02-28T22:49:50;-6.10;1.00
13375;DHT22;6756;51.354;15.754;2023-02-28T22:53:52;-6.10;15.10
13375;DHT22;6756;51.354;15.754;2023-02-28T22:57:53;-6.10;99.90
13375;DHT22;6756;51.354;15.754;2023-02-28T23:01:54;-6.10;1.00
13375;DHT22;6756;51.354;15.754;2023-02-28T23:05:55;-6.10;1.00
13375;DHT22;6756;51.354;15.754;2023-02-28T23:09:56;-6.20;1.00
13375;DHT22;6756;51.354;15.754;2023-02-28T23:13:57;-6.30;99.90
13375;DHT22;6756;51.354;15.754;2023-02-28T23:17:58;-6.30;1.00
13375;DHT22;6756;51.354;15.754;2023-02-28T23:22:01;-6.30;99.90
13375;DHT22;6756;51.354;15.754;2023-02-28T23:26:06;-6.40;99.90
13375;DHT22;6756;51.354;15.754;2023-02-28T23:30:08;-6.50;99.90
13375;DHT22;6756;51.354;15.754;2023-02-28T23:34:10;-6.50;99.90
13375;DHT22;6756;51.354;15.754;2023-02-28T23:38:11;-6.60;99.90
13375;DHT22;6756;51.354;15.754;2023-02-28T23:42:12;-6.60;99.90
13375;DHT22;6756;51.354;15.754;2023-02-28T23:46:16;-6.60;1.00
13375;DHT22;6756;51.354;15.754;2023-02-28T23:50:17;-6.60;99.90
13375;DHT22;6756;51.354;15.754;2023-02-28T23:54:18;-6.60;99.90
13375;DHT22;6756;51.354;15.754;2023-02-28T23:58:19;-6.60;1.00
